Ricardo Muñoz

Chief Scout - Atlético Tucumán
20 Feb 2028
Sunday
Process

Personality

Adaptability (20) Ambition (11) Controversy (18) Loyalty (17) Pressure (12) Professionalism (15) Sportsmanship (7) Temperament (14)

Profile

Coaching Style Democratic
License Continental C
Determination 9
Man Management 12
Motivating 8
Discipline 8
Job Satisfaction
100%
Fatigue
0%
Role Chief Scout
Wage 72.1K p/w
Contract 14.03.2030

Performance

Behaviour Good
Training Effectiveness
49%
Player Development
30%
Injury Prevention
45%
Tactical Implementation
35%

Recent Events

Attended a recruitment meeting now
Attended a recruitment meeting now
Attended a recruitment meeting 7d ago
Attended a recruitment meeting 7d ago
Attended a recruitment meeting 7d ago
Attended a recruitment meeting 7d ago
Attended a recruitment meeting 14d ago
Attended a recruitment meeting 14d ago

Currently Monitoring

266
Player Club Status Ability Confidence Watched Last Observed Latest Vote
Joel Ezra Enyimba Active 91 / 96 40% 2 30.11.2027 -
Hosea Michael Remo Stars Active 93 / 100 40% 3 30.11.2027 -
Ignacio Fernández Boston River Active 96 / 105 40% 4 29.11.2027 -
Archie Gray Southampton Active 158 / 162 40% 4 29.11.2027 Monitor
Victor Hernandez Santa Fe Active 119 / 126 40% 3 28.11.2027 -
Jorge Moreno Athletic Bilbao Active 127 / 137 40% 4 28.11.2027 -
Josh King Newcastle United Active 147 / 143 40% 2 28.11.2027 -
Trey Nyoni Rotherham United Active 141 / 151 40% 1 27.11.2027 -
Marco Morigi Caracas Active 94 / 100 40% 4 25.11.2027 -
Óscar Hinojosa Metropolitanos Active 81 / 84 40% 3 25.11.2027 -
Sebastián Ramírez Aguilas Doradas Active 104 / 117 40% 3 23.11.2027 -
Vitor Reis Manchester City Active 133 / 138 40% 3 23.11.2027 -
Tyler Fletcher Rotherham United Active 111 / 115 40% 1 23.11.2027 -
Facundo Balatti Penarol Active 101 / 113 40% 2 20.11.2027 -
Adam Aznou Everton Active 132 / 126 40% 4 20.11.2027 -
Oscar Steinke Brånby Hammarby Active 96 / 103 40% 1 20.11.2027 -
Colin Guske Orlando City Active 96 / 103 40% 2 18.11.2027 -
Lucas Camejo River Plate Active 88 / 86 40% 3 17.11.2027 -
Jon Esenga IF Elfsborg Active 95 / 100 40% 1 17.11.2027 -
Diego Vargas Universidad de Concepcion Active 98 / 98 40% 1 16.11.2027 -
Ángel Aguayo Sol de America Active 97 / 94 40% 2 14.11.2027 -
Ayden Heaven Portsmouth Active 147 / 154 40% 1 13.11.2027 -
Christos Mouzakitis Hull City Active 136 / 150 40% 1 13.11.2027 -
Yury Oyarzo Racing Active 96 / 97 40% 3 09.11.2027 -
Isaías Silva Miramar Misiones Active 75 / 82 40% 3 09.11.2027 -
Gideon Manaseh Ikorodu City Active 92 / 106 40% 2 08.11.2027 -
Rasmus Nehrman Gefle Active 79 / 95 40% 1 05.11.2027 -
Alan Valdelamar Independiente Medellin Active 95 / 98 40% 1 05.11.2027 -
Francisco Machis Llaneros Active 80 / 93 40% 3 03.11.2027 -
Mirza Ćatović VfB Stuttgart Active 114 / 129 40% 1 03.11.2027 -
Adrian Skogmar Malmo FF Active 112 / 127 40% 2 02.11.2027 -
Ivan Giraldo Valencia Active 132 / 133 40% 1 02.11.2027 -
Lucas Nicol Mjondalen Active 81 / 81 40% 1 31.10.2027 -
Juan Camilo Córdoba Deportivo Pereira Active 85 / 89 40% 2 30.10.2027 -
Juan Diego Perdomo Depor Active 93 / 91 40% 2 27.10.2027 -
Pedro Soma San Diego Football Club Active 105 / 111 40% 3 27.10.2027 -
Agustín De la Cuesta Racing Active 111 / 116 40% 1 27.10.2027 -
Vinícius Lira São Paulo Active 113 / 127 40% 1 24.10.2027 -
Honest Ahanor Atalanta Active 135 / 139 40% 1 23.10.2027 -
Josh Acheampong Everton Active 149 / 149 40% 1 23.10.2027 -
Tiago Gordillo San Miguel Active 81 / 94 40% 3 22.10.2027 -
Jonny Shore New York City Active 101 / 109 40% 1 22.10.2027 -
Matías Canedo Rampla Juniors Active 85 / 92 40% 1 21.10.2027 -
Nikolay Sotnikov Arsenal Dzerzhinsk Active 83 / 89 40% 1 18.10.2027 -
Ivan Borges Defensores Active 90 / 93 40% 1 16.10.2027 -
Aytor Herrera Mineros de Guayana Active 87 / 84 40% 1 15.10.2027 -
Sebastián Caballero Barranquilla Active 97 / 92 40% 1 14.10.2027 -
Matias Siltanen Malmo FF Active 125 / 136 40% 1 10.10.2027 -
Darwin Pérez Metropolitanos Active 78 / 85 40% 1 10.10.2027 -
Mohamed Bolivar Barranquilla Active 93 / 97 40% 1 04.10.2027 -
Mateus Mané Burnley Active 132 / 136 40% 6 31.05.2027 -
Assane Diao Como Active 146 / 156 40% 18 30.05.2027 -
Chimobi Igwilo Rangers International Active 91 / 88 40% 1 30.05.2027 -
Borna Knezović Casarano Active 103 / 101 40% 4 27.05.2027 -
Carlos da Rosa Cerro Active 96 / 101 40% 1 27.05.2027 -
Miloš Jovičić Zabbar St. Patrick Active 84 / 100 40% 8 25.05.2027 -
Alen Vukaj Alcione Milano Active 80 / 99 40% 1 25.05.2027 -
Luka Andrade Montevideo City Torque Active 101 / 103 40% 6 24.05.2027 -
Teboho Zwane Ajax Cape Town Active 100 / 98 40% 6 24.05.2027 -
Miguel Marulanda Envigado Active 87 / 99 40% 1 23.05.2027 -
Hassan Beja AFC Leopards Active 91 / 88 40% 2 22.05.2027 -
Sergey Gaiduk Salyut Active 78 / 74 40% 3 21.05.2027 -
Ousseynou Seck Randers Active 109 / 118 40% 5 19.05.2027 -
Sidiki Chérif Newcastle United Active 120 / 132 40% 3 19.05.2027 -
Sindre Walle Egeli Udinese Active 127 / 140 40% 8 18.05.2027 -
Giuseppe Coppola Picerno Active 105 / 95 40% 2 16.05.2027 -
Lwanda Mbanjwa Platinum Stars Active 84 / 102 40% 5 13.05.2027 -
Rafael Moreno Atletico Venezuela Active 109 / 110 40% 5 10.05.2027 -
Nahuel Olmedo Crawley Town Active 84 / 84 40% 3 10.05.2027 -
Dilan Neves Benfica Active 75 / 79 40% 2 07.05.2027 -
Joel Orlando Almagro Active 112 / 115 40% 3 06.05.2027 -
Chineme Chinonso Ikorodu City Active 103 / 94 40% 2 04.05.2027 -
Maren Kefas Plateau United Active 97 / 96 40% 1 28.04.2027 -
Stanley Amon Bayelsa United Active 98 / 91 40% 2 23.04.2027 -
Abubakar Garba Nasarawa United Active 86 / 100 40% 1 23.04.2027 -
Naledi Hlongwane Wa All Stars Active 86 / 102 40% 2 22.04.2027 -
Mathys Tel Tottenham Active 135 / 154 40% 3 21.04.2027 -
Etsgar Cruz Ruch Active 82 / 94 40% 1 21.04.2027 -
Roberto Iliev Slavia Sofia Active 100 / 100 40% 5 18.04.2027 -
Víctor Guzmán Sporting CP Active 103 / 96 40% 5 13.04.2027 -
Darlvin Yeboah Bechem United Active 85 / 94 40% 3 12.04.2027 -
Ben Ahmed Kohili Paradou Active 99 / 108 40% 6 12.04.2027 -
Luke Baartman Ajax Cape Town Active 102 / 112 40% 6 10.04.2027 -
Kirill Cheburakov Rostov Active 70 / 75 40% 1 29.03.2027 -
Leo Castledine Middlesbrough Active 133 / 139 40% 4 25.03.2027 -
Ryan Oné Sheffield United Active 104 / 114 40% 4 23.03.2027 -
Lorenzo De Leo Renate Active 105 / 99 40% 1 22.03.2027 -
Rocco Vata Watford Active 125 / 121 40% 2 21.03.2027 -
Tiago Pucciarelli IF Elfsborg Active 97 / 99 40% 2 18.03.2027 -
Luciano Inverso Betis Active 112 / 120 40% 2 15.03.2027 -
Dani Ángel Sampdoria Active 95 / 101 40% 2 15.03.2027 -
Charlie Lennon Barnsley Active 88 / 94 40% 3 13.03.2027 -
Juan Francisco Rossel Puebla Active 97 / 94 40% 3 05.03.2027 -
Joseph George Aigle Royal de Moungo Active 95 / 84 40% 2 01.03.2027 -
Serge Daura PWD Bamenda Active 92 / 95 40% 1 17.02.2027 -
George Brown Sheffield Wednesday Active 103 / 103 40% 2 16.02.2027 -
Máximo Seggio Crawley Town Active 76 / 94 40% 1 12.02.2027 -
Mattia Angeloni AlbinoLeffe Active 82 / 82 40% 1 11.02.2027 -
Fletcher Holman Swindon Town Active 88 / 90 40% 1 11.02.2027 -
Jonás Luna Wanderers Active 115 / 121 40% 3 10.02.2027 -
Xavier Biscayzacú Defensor Sporting Active 128 / 132 40% 2 10.02.2027 -
Will Lankshear Middlesbrough Active 120 / 125 40% 1 03.02.2027 -
Max Bird Birmingham Active 124 / 131 40% 1 29.11.2026 -
Jordan Lotomba Bloemfontein Celtic Active 120 / 114 40% 1 29.11.2026 -
Toby Collyer West Bromwich Albion Active 132 / 130 40% 1 28.11.2026 -
Oliver Skipp Leicester City Active 120 / 138 40% 3 27.11.2026 -
Thalente Mbatha Orlando Pirates Active 123 / 119 40% 3 27.11.2026 -
Vladan Kovačević Norwich City Active 110 / 110 40% 1 27.11.2026 -
Fran Vieites Walsall Active 129 / 120 40% 1 27.11.2026 -
Ethan Galbraith Swansea City Active 131 / 124 40% 2 25.11.2026 -
Josh Neufville Bradford City Active 100 / 116 40% 1 25.11.2026 -
Filip Marschall Stevenage Active 99 / 118 40% 1 25.11.2026 -
Matías Tagliamonte Racing Club Active 116 / 119 40% 1 25.11.2026 -
Lucas Lund Viborg Active 106 / 122 40% 1 25.11.2026 -
Arijanet Murić Sassuolo Active 143 / 138 40% 1 24.11.2026 -
Rodrigo Morínigo Debrecen Active 116 / 128 40% 1 24.11.2026 -
Jens Petter Hauge Bodo/Glimt Active 136 / 143 40% 1 24.11.2026 Needs More Info
Sota Kitano Red Bull Salzburg Active 124 / 119 40% 1 24.11.2026 -
Paik Seung-Ho Birmingham Active 131 / 134 40% 2 23.11.2026 -
Aidan Morris Middlesbrough Active 137 / 131 40% 2 23.11.2026 -
Tariq Lamptey Queens Park Rangers Active 144 / 128 40% 1 23.11.2026 -
Callum Brittain Middlesbrough Active 130 / 125 40% 1 20.11.2026 -
Ronnie Edwards Queens Park Rangers Active 123 / 125 40% 1 20.11.2026 -
Gastón Benedetti Estudiantes Active 130 / 128 40% 2 19.11.2026 -
Rustam Yatimov Rostov Active 113 / 113 40% 1 19.11.2026 -
Michael Baidoo Plymouth Argyle Active 123 / 126 40% 1 19.11.2026 -
Toti Wolverhampton Active 122 / 131 40% 2 18.11.2026 -
Justin Devenny Stoke City Active 122 / 121 40% 1 18.11.2026 -
Enrique Almeida Cerro Largo Active 100 / 99 40% 1 18.11.2026 -
Thomas Carrique Andorra Active 127 / 108 40% 4 15.11.2026 -
Welington Southampton Active 134 / 121 40% 1 15.11.2026 -
Mateo Ortale Khazar Active 115 / 114 40% 1 15.11.2026 -
Tobías Bovone Deportivo Pereira Active 108 / 108 40% 1 14.11.2026 -
Alfie Doughty Millwall Active 126 / 119 40% 1 14.11.2026 -
Nicolás Sumavil Platense Active 115 / 121 40% 1 14.11.2026 -
Gustavo Hamer Sheffield United Active 124 / 124 40% 2 12.11.2026 -
Evander Wolverhampton Active 134 / 139 40% 1 12.11.2026 -
Egoitz Arana Real Sociedad Active 101 / 103 40% 4 11.11.2026 -
Radek Vítek Middlesbrough Active 143 / 131 40% 2 11.11.2026 -
Max Lowe Sheffield Wednesday Active 126 / 120 40% 1 11.11.2026 -
Will Mannion Charlton Athletic Active 113 / 116 40% 1 11.11.2026 -
Alan Lescano Argentinos Juniors Active 130 / 126 40% 1 11.11.2026 -
Matías Vargas Gimnasia y Esgrima Active 134 / 130 40% 1 11.11.2026 -
Ben Sheaf Wrexham Active 132 / 128 40% 3 08.11.2026 -
Santiago Longo Belgrano Active 120 / 127 40% 1 08.11.2026 -
Lebogang Manyama SuperSport United Active 123 / 120 40% 1 08.11.2026 -
Killian Cahill Leyton Orient Active 102 / 98 40% 1 08.11.2026 -
Richard Ludha MFK Skalica Active 111 / 115 40% 1 08.11.2026 -
Darlin Yongwa Norwich City Active 118 / 113 40% 1 05.11.2026 -
Oscar Hedvall Valerenga Active 121 / 116 40% 1 05.11.2026 -
Habib Diarra Sunderland Active 147 / 135 40% 1 03.11.2026 -
Nicolás Garayalde Liverpool Montevideo Active 113 / 119 40% 1 02.11.2026 -
Manu Morlanes Mallorca Active 127 / 138 40% 6 01.11.2026 -
Brian De Keersmaecker Oxford United Active 114 / 126 40% 1 01.11.2026 -
Kristoffer Lund Birmingham Active 134 / 124 40% 1 31.10.2026 -
Ethan Ampadu Leeds United Active 133 / 151 40% 1 29.10.2026 -
Teboho Mokoena Mamelodi Sundowns Active 142 / 122 40% 1 29.10.2026 Needs More Info
Edoardo Bove Watford Active 135 / 138 40% 1 28.10.2026 -
Josh Tymon Swansea City Active 131 / 113 40% 1 28.10.2026 -
Leandro Lozano Boca Juniors Active 129 / 119 40% 1 26.10.2026 -
Dayne St. Clair Inter Miami CF Active 130 / 127 40% 1 25.10.2026 -
Nathan Trott Cardiff City Active 132 / 130 40% 1 25.10.2026 -
James Trafford Leeds United Active 132 / 143 40% 1 25.10.2026 -
Lucas Arce Charleroi Active 118 / 131 40% 1 24.10.2026 -
Óscar Díaz Miramar Misiones Active 110 / 106 40% 1 24.10.2026 -
Juan Cruz de los Santos Nacional Active 120 / 120 40% 1 23.10.2026 -
Emanuel Coronel Rosario Central Active 121 / 124 40% 1 21.10.2026 -
Imanol González Gimnasia y Esgrima Active 108 / 121 40% 1 20.10.2026 -
Damián Fernández Defensa y Justicia Active 119 / 130 40% 1 20.10.2026 -
Ignacio Rodríguez Racing Club Active 122 / 125 40% 1 20.10.2026 -
Diego Romero Universitario Active 115 / 127 40% 2 19.10.2026 -
Bongani Zungu Ajax Cape Town Active 129 / 121 40% 1 18.10.2026 -
Pedrinho Shakhtar Active 148 / 138 40% 1 18.10.2026 -
Juan Bisanz Huracán Active 121 / 126 40% 1 18.10.2026 -
Ander Guevara Racing Genk Active 145 / 127 40% 3 17.10.2026 -
Tobías Reinhart Universidad de Chile Active 123 / 121 40% 2 17.10.2026 -
Ilyas Ansah Hull City Active 127 / 132 40% 1 16.10.2026 -
Facundo Vila Estudiantes Active 104 / 106 40% 2 14.10.2026 -
Viktor Johansson Stoke City Active 142 / 129 40% 1 14.10.2026 -
Bruno Antúnez Boston River Active 110 / 110 40% 3 13.10.2026 -
Sergi Cardona KAA Gent Active 140 / 151 40% 3 12.10.2026 -
Esteban Valencia Cobresal Active 109 / 104 40% 3 12.10.2026 -
Ignacio Vázquez Platense Active 125 / 130 40% 1 09.10.2026 -
Nazareno Colombo Racing Club Active 123 / 123 40% 1 09.10.2026 -
José Castillo Guadalajara Active 114 / 121 40% 2 08.10.2026 -
Jesús Orozco Chiquete Cruz Azul Active 136 / 125 40% 2 08.10.2026 -
Franco Pardo Santos Laguna Active 126 / 127 40% 2 08.10.2026 -
Erik Lira Cruz Azul Active 132 / 139 40% 2 07.10.2026 -
Fidel Ambríz Monterrey Active 129 / 126 40% 4 07.10.2026 -
Luís Esteves Atlas Active 134 / 127 40% 4 07.10.2026 -
Martín Ojeda Orlando City Active 129 / 137 40% 1 07.10.2026 -
Jesús Angulo Tigres Active 137 / 137 40% 4 06.10.2026 -
Willer Ditta Cruz Azul Active 138 / 132 40% 3 06.10.2026 -
José Alberti Wanderers Active 127 / 123 40% 1 06.10.2026 -
Matías Contrera Hrvatski Dragovoljac Active 107 / 98 40% 1 06.10.2026 -
John Pulskamp Sporting Kansas City Active 109 / 113 40% 2 02.10.2026 -
Lucas Bergström Union Berlin Active 129 / 131 40% 1 02.10.2026 -
Diego Enríquez Sporting Cristal Active 123 / 133 40% 3 30.09.2026 -
Ricardo Echeverría Santos Laguna Active 118 / 114 40% 1 30.09.2026 -
Gerardo Arteaga Monterrey Active 123 / 134 40% 1 30.09.2026 -
Rômulo Tigres Active 120 / 123 40% 1 30.09.2026 -
Omar Carabalí O'Higgins Active 115 / 106 40% 1 30.09.2026 -
Efrain Dos Santos Veracruz Active 127 / 126 40% 1 29.09.2026 -
Facundo Miño Deportivo Riestra Active 125 / 115 40% 1 26.09.2026 -
Miguel Brizuela O'Higgins Active 116 / 118 40% 1 26.09.2026 -
Álvaro Angulo Pumas UNAM Active 123 / 120 40% 2 25.09.2026 -
Nathan Silva Pumas UNAM Active 124 / 130 40% 2 23.09.2026 -
Víctor Felipe Méndez Colo-Colo Active 119 / 119 40% 1 23.09.2026 -
Tomás Alarcón Colo-Colo Active 116 / 113 40% 1 22.09.2026 -
Yeferson Cordova Llaneros Active 91 / 95 40% 1 22.09.2026 -
Tomás Ahumada Audax Italiano Active 102 / 105 40% 1 21.09.2026 -
Aldo Pérez Guarani Active 106 / 112 40% 1 21.09.2026 -
Ramón Juárez Club America Active 133 / 131 40% 4 18.09.2026 -
Héctor Holguín Morelia Active 111 / 104 40% 1 18.09.2026 -
Kevin Álvarez Club America Active 138 / 127 40% 3 16.09.2026 -
Rodrigo Chagas Juventud Active 115 / 121 40% 2 16.09.2026 -
Eber Moreno Deportivo Pereira Active 116 / 107 40% 1 15.09.2026 -
Jorge Sánchez Atlas Active 124 / 129 40% 1 14.09.2026 -
Aldo López Santos Laguna Active 113 / 117 40% 2 13.09.2026 -
Jean Carlos Pestaña Junior Active 125 / 116 40% 1 13.09.2026 -
Jhomier Guerrero Millonarios Active 118 / 116 40% 2 12.09.2026 -
Pedro Pedraza Pachuca Active 126 / 115 40% 1 12.09.2026 -
Aarón Mejía Tijuana Active 114 / 118 40% 2 11.09.2026 -
Miguel Núñez Chiapas Active 94 / 100 40% 1 11.09.2026 -
Adonis Frías Atlas Active 123 / 128 40% 1 09.09.2026 -
Aldair Zárate Atletico Bucaramanga Active 110 / 118 40% 1 07.09.2026 -
Camilo Martinez Cortulua Active 125 / 124 40% 1 07.09.2026 -
Williams Mabunda Ajax Cape Town Active 122 / 122 40% 1 07.09.2026 -
Nicolás Campisi Sportivo Luqueno Active 125 / 124 40% 1 06.09.2026 -
Cristopher Varela Deportivo La Guaira Active 117 / 115 40% 1 06.09.2026 -
Erick Aguirre Monterrey Active 118 / 130 40% 3 04.09.2026 -
Diego Romero Liverpool Montevideo Active 117 / 111 40% 1 04.09.2026 -
Nicolás Hernández Atletico Nacional Active 117 / 121 40% 1 04.09.2026 -
Diego Hernández Aguilas Doradas Active 120 / 122 40% 3 03.09.2026 -
Nicolás Ramírez Universidad de Chile Active 117 / 116 40% 1 03.09.2026 -
Erik de los Santos Racing Active 108 / 115 40% 2 02.09.2026 -
Alan Cervantes Club America Active 129 / 130 40% 1 02.09.2026 -
César Araújo Tigres Active 120 / 127 40% 3 01.09.2026 -
Jean Pierre Rosso Liverpool Montevideo Active 110 / 119 40% 2 28.08.2026 -
Emiliano Álvarez Progreso Active 116 / 124 40% 2 26.08.2026 -
Yeferson Rodallega Envigado Active 106 / 115 40% 1 25.08.2026 -
Éwil Murillo Santa Fe Active 119 / 111 40% 1 25.08.2026 -
Richard Ledezma Guadalajara Active 131 / 133 40% 2 24.08.2026 -
Juan Manuel Zapata Envigado Active 113 / 121 40% 2 24.08.2026 -
Juan Camilo Pérez Carabobo Active 113 / 118 40% 1 22.08.2026 -
Jan Carlos Ángulo Deportes Tolima Active 116 / 118 40% 1 21.08.2026 -
Pablo Cardona Cortulua Active 112 / 108 40% 1 20.08.2026 -
Jesús Garza Tigres Active 129 / 123 40% 1 20.08.2026 -
Milton Valenzuela Atlas Active 114 / 112 40% 1 19.08.2026 -
Nicolás Rossi Juventud Active 107 / 106 40% 2 18.08.2026 -
Emiliano González Almagro Active 120 / 114 40% 1 18.08.2026 -
Frankarlos Benítez Caracas Active 95 / 100 40% 1 17.08.2026 -
Reynaldo Fontalvo Real Cartagena Active 100 / 97 40% 1 17.08.2026 -
Giacomo Gambetta Sport Huancayo Active 94 / 95 40% 1 17.08.2026 -
Ángel Maciel Tacuarembo Active 98 / 106 40% 1 15.08.2026 -
Ángel González Libertad Active 101 / 105 40% 1 15.08.2026 -
Joaquim Tigres Active 124 / 124 40% 2 14.08.2026 -
Esneyder Mena Deportivo Pasto Active 119 / 110 40% 1 10.08.2026 -
Gonzalo Falcón Cienciano Active 113 / 105 40% 1 09.08.2026 -
Carlos Gómez Ayacucho Active 102 / 96 40% 1 08.08.2026 -
Pedro Vite Pumas UNAM Active 123 / 119 40% 1 07.08.2026 -
Alejandro Zendejas Club America Active 135 / 133 40% 1 07.08.2026 -
Fabricio Domínguez Cerro Porteno Active 118 / 126 40% 1 07.08.2026 -
Diego Campillo Guadalajara Active 119 / 122 40% 2 04.08.2026 -
Pablo Tomeo Valladolid Active 131 / 131 40% 1 02.08.2026 -
Joe Gomez Liverpool Active 157 / 155 40% 1 01.08.2026 -